sensor_id;sensor_type;location;lat;lon;timestamp;P1;durP1;ratioP1;P2;durP2;ratioP2
20427;SDS011;10373;49.768;18.302;2022-09-01T00:01:48;11.00;;;6.13;;
20427;SDS011;10373;49.768;18.302;2022-09-01T00:04:17;8.50;;;4.90;;
20427;SDS011;10373;49.768;18.302;2022-09-01T00:06:44;11.55;;;6.13;;
20427;SDS011;10373;49.768;18.302;2022-09-01T00:09:12;11.27;;;6.45;;
20427;SDS011;10373;49.768;18.302;2022-09-01T00:11:40;10.30;;;5.45;;
20427;SDS011;10373;49.768;18.302;2022-09-01T00:14:07;7.63;;;4.55;;
20427;SDS011;10373;49.768;18.302;2022-09-01T00:16:34;9.95;;;4.95;;
20427;SDS011;10373;49.768;18.302;2022-09-01T00:19:01;7.40;;;3.85;;
20427;SDS011;10373;49.768;18.302;2022-09-01T00:21:28;7.47;;;4.25;;
20427;SDS011;10373;49.768;18.302;2022-09-01T00:23:56;5.65;;;3.40;;
20427;SDS011;10373;49.768;18.302;2022-09-01T00:26:22;4.85;;;3.03;;
20427;SDS011;10373;49.768;18.302;2022-09-01T00:28:47;6.18;;;3.25;;
20427;SDS011;10373;49.768;18.302;2022-09-01T00:31:15;5.15;;;3.22;;
20427;SDS011;10373;49.768;18.302;2022-09-01T00:33:43;4.60;;;2.90;;
20427;SDS011;10373;49.768;18.302;2022-09-01T00:36:09;6.20;;;3.35;;
20427;SDS011;10373;49.768;18.302;2022-09-01T00:38:35;4.18;;;3.10;;
20427;SDS011;10373;49.768;18.302;2022-09-01T00:41:01;5.30;;;3.47;;
20427;SDS011;10373;49.768;18.302;2022-09-01T00:46:05;5.57;;;3.17;;
20427;SDS011;10373;49.768;18.302;2022-09-01T00:48:33;5.97;;;3.47;;
20427;SDS011;10373;49.768;18.302;2022-09-01T00:50:59;4.25;;;3.10;;
20427;SDS011;10373;49.768;18.302;2022-09-01T00:53:25;4.95;;;3.42;;
20427;SDS011;10373;49.768;18.302;2022-09-01T00:55:51;5.03;;;3.20;;
20427;SDS011;10373;49.768;18.302;2022-09-01T00:58:17;6.05;;;3.70;;
20427;SDS011;10373;49.768;18.302;2022-09-01T01:00:43;9.68;;;4.20;;
20427;SDS011;10373;49.768;18.302;2022-09-01T01:03:10;8.35;;;4.50;;
20427;SDS011;10373;49.768;18.302;2022-09-01T01:05:39;7.50;;;4.53;;
20427;SDS011;10373;49.768;18.302;2022-09-01T01:08:12;6.40;;;4.25;;
20427;SDS011;10373;49.768;18.302;2022-09-01T01:10:42;6.88;;;3.83;;
20427;SDS011;10373;49.768;18.302;2022-09-01T01:13:11;7.90;;;4.47;;
20427;SDS011;10373;49.768;18.302;2022-09-01T01:15:39;7.20;;;4.10;;
20427;SDS011;10373;49.768;18.302;2022-09-01T01:18:14;7.60;;;3.80;;
20427;SDS011;10373;49.768;18.302;2022-09-01T01:20:41;6.25;;;3.50;;
20427;SDS011;10373;49.768;18.302;2022-09-01T01:23:44;4.35;;;3.03;;
20427;SDS011;10373;49.768;18.302;2022-09-01T01:26:17;4.40;;;3.22;;
20427;SDS011;10373;49.768;18.302;2022-09-01T01:28:43;4.40;;;3.00;;
20427;SDS011;10373;49.768;18.302;2022-09-01T01:31:13;4.35;;;3.17;;
20427;SDS011;10373;49.768;18.302;2022-09-01T01:33:53;7.13;;;3.42;;
20427;SDS011;10373;49.768;18.302;2022-09-01T01:36:39;5.75;;;3.45;;
20427;SDS011;10373;49.768;18.302;2022-09-01T01:39:09;4.78;;;3.13;;
20427;SDS011;10373;49.768;18.302;2022-09-01T01:41:37;4.55;;;3.17;;
20427;SDS011;10373;49.768;18.302;2022-09-01T01:44:09;5.40;;;3.22;;
20427;SDS011;10373;49.768;18.302;2022-09-01T01:46:39;5.05;;;3.50;;
20427;SDS011;10373;49.768;18.302;2022-09-01T01:49:08;5.25;;;2.85;;
20427;SDS011;10373;49.768;18.302;2022-09-01T01:51:37;4.30;;;3.05;;
20427;SDS011;10373;49.768;18.302;2022-09-01T01:54:03;5.43;;;3.70;;
20427;SDS011;10373;49.768;18.302;2022-09-01T01:56:31;6.22;;;3.13;;
20427;SDS011;10373;49.768;18.302;2022-09-01T01:59:00;4.85;;;3.05;;
20427;SDS011;10373;49.768;18.302;2022-09-01T02:01:27;4.80;;;3.03;;
20427;SDS011;10373;49.768;18.302;2022-09-01T02:06:48;5.97;;;3.75;;
20427;SDS011;10373;49.768;18.302;2022-09-01T02:09:17;3.97;;;3.15;;
20427;SDS011;10373;49.768;18.302;2022-09-01T02:11:44;3.78;;;2.97;;
20427;SDS011;10373;49.768;18.302;2022-09-01T02:14:10;4.75;;;3.40;;
20427;SDS011;10373;49.768;18.302;2022-09-01T02:16:38;5.72;;;3.20;;
20427;SDS011;10373;49.768;18.302;2022-09-01T02:19:05;5.97;;;3.25;;
20427;SDS011;10373;49.768;18.302;2022-09-01T02:21:34;5.70;;;3.72;;
20427;SDS011;10373;49.768;18.302;2022-09-01T02:24:01;4.78;;;3.30;;
20427;SDS011;10373;49.768;18.302;2022-09-01T02:26:33;6.03;;;3.67;;
20427;SDS011;10373;49.768;18.302;2022-09-01T02:29:10;5.63;;;3.30;;
20427;SDS011;10373;49.768;18.302;2022-09-01T02:31:42;4.75;;;3.33;;
20427;SDS011;10373;49.768;18.302;2022-09-01T02:34:09;5.22;;;3.75;;
20427;SDS011;10373;49.768;18.302;2022-09-01T02:36:38;8.85;;;4.13;;
20427;SDS011;10373;49.768;18.302;2022-09-01T02:39:08;7.63;;;4.00;;
20427;SDS011;10373;49.768;18.302;2022-09-01T02:41:35;6.15;;;3.72;;
20427;SDS011;10373;49.768;18.302;2022-09-01T02:44:02;6.50;;;4.15;;
20427;SDS011;10373;49.768;18.302;2022-09-01T02:46:35;6.03;;;4.22;;
20427;SDS011;10373;49.768;18.302;2022-09-01T02:49:12;7.15;;;4.63;;
20427;SDS011;10373;49.768;18.302;2022-09-01T02:51:42;9.75;;;4.20;;
20427;SDS011;10373;49.768;18.302;2022-09-01T02:54:09;8.13;;;5.32;;
20427;SDS011;10373;49.768;18.302;2022-09-01T02:56:37;10.20;;;4.70;;
20427;SDS011;10373;49.768;18.302;2022-09-01T02:59:03;7.53;;;4.35;;
20427;SDS011;10373;49.768;18.302;2022-09-01T03:01:30;8.80;;;4.88;;
20427;SDS011;10373;49.768;18.302;2022-09-01T03:03:58;8.90;;;4.75;;
20427;SDS011;10373;49.768;18.302;2022-09-01T03:06:27;7.38;;;4.85;;
20427;SDS011;10373;49.768;18.302;2022-09-01T03:08:56;7.32;;;4.28;;
20427;SDS011;10373;49.768;18.302;2022-09-01T03:11:26;5.53;;;4.10;;
20427;SDS011;10373;49.768;18.302;2022-09-01T03:13:54;6.32;;;4.18;;
20427;SDS011;10373;49.768;18.302;2022-09-01T03:16:19;5.50;;;4.43;;
20427;SDS011;10373;49.768;18.302;2022-09-01T03:18:46;6.60;;;4.53;;
20427;SDS011;10373;49.768;18.302;2022-09-01T03:21:13;5.07;;;3.70;;
20427;SDS011;10373;49.768;18.302;2022-09-01T03:23:42;7.47;;;4.00;;
20427;SDS011;10373;49.768;18.302;2022-09-01T03:26:10;6.38;;;3.95;;
20427;SDS011;10373;49.768;18.302;2022-09-01T03:28:36;5.95;;;4.10;;
20427;SDS011;10373;49.768;18.302;2022-09-01T03:31:02;5.53;;;3.97;;
20427;SDS011;10373;49.768;18.302;2022-09-01T03:33:28;7.50;;;3.97;;
20427;SDS011;10373;49.768;18.302;2022-09-01T03:35:55;5.90;;;3.60;;
20427;SDS011;10373;49.768;18.302;2022-09-01T03:38:21;6.70;;;4.13;;
20427;SDS011;10373;49.768;18.302;2022-09-01T03:40:57;4.78;;;3.92;;
20427;SDS011;10373;49.768;18.302;2022-09-01T03:43:26;6.03;;;4.20;;
20427;SDS011;10373;49.768;18.302;2022-09-01T03:45:58;8.27;;;4.47;;
20427;SDS011;10373;49.768;18.302;2022-09-01T03:48:24;5.95;;;3.78;;
20427;SDS011;10373;49.768;18.302;2022-09-01T03:50:52;5.60;;;3.65;;
20427;SDS011;10373;49.768;18.302;2022-09-01T03:53:20;4.60;;;3.65;;
20427;SDS011;10373;49.768;18.302;2022-09-01T03:55:46;5.43;;;3.83;;
20427;SDS011;10373;49.768;18.302;2022-09-01T03:58:14;7.38;;;4.15;;
20427;SDS011;10373;49.768;18.302;2022-09-01T04:00:44;6.28;;;4.15;;
20427;SDS011;10373;49.768;18.302;2022-09-01T04:03:12;4.95;;;3.55;;
20427;SDS011;10373;49.768;18.302;2022-09-01T04:05:42;6.50;;;4.30;;
20427;SDS011;10373;49.768;18.302;2022-09-01T04:08:09;6.00;;;3.60;;
20427;SDS011;10373;49.768;18.302;2022-09-01T04:10:46;5.57;;;3.88;;
20427;SDS011;10373;49.768;18.302;2022-09-01T04:13:19;4.90;;;3.53;;
20427;SDS011;10373;49.768;18.302;2022-09-01T04:15:47;8.00;;;4.20;;
20427;SDS011;10373;49.768;18.302;2022-09-01T04:18:13;5.40;;;3.72;;
20427;SDS011;10373;49.768;18.302;2022-09-01T04:20:47;5.65;;;4.25;;
20427;SDS011;10373;49.768;18.302;2022-09-01T04:23:15;5.20;;;3.45;;
20427;SDS011;10373;49.768;18.302;2022-09-01T04:25:57;7.22;;;4.13;;
20427;SDS011;10373;49.768;18.302;2022-09-01T04:28:42;4.78;;;3.58;;
20427;SDS011;10373;49.768;18.302;2022-09-01T04:31:11;5.13;;;3.90;;
20427;SDS011;10373;49.768;18.302;2022-09-01T04:33:41;5.25;;;4.05;;
20427;SDS011;10373;49.768;18.302;2022-09-01T04:38:47;5.25;;;3.67;;
20427;SDS011;10373;49.768;18.302;2022-09-01T04:41:19;6.55;;;3.92;;
20427;SDS011;10373;49.768;18.302;2022-09-01T04:43:46;7.88;;;3.70;;
20427;SDS011;10373;49.768;18.302;2022-09-01T04:46:15;7.32;;;3.95;;
20427;SDS011;10373;49.768;18.302;2022-09-01T04:48:42;5.20;;;3.80;;
20427;SDS011;10373;49.768;18.302;2022-09-01T04:51:09;6.90;;;3.78;;
20427;SDS011;10373;49.768;18.302;2022-09-01T04:53:36;4.70;;;3.65;;
20427;SDS011;10373;49.768;18.302;2022-09-01T04:56:03;6.20;;;4.03;;
20427;SDS011;10373;49.768;18.302;2022-09-01T04:58:34;5.00;;;3.50;;
20427;SDS011;10373;49.768;18.302;2022-09-01T05:01:01;5.32;;;3.90;;
20427;SDS011;10373;49.768;18.302;2022-09-01T05:03:37;4.38;;;3.92;;
20427;SDS011;10373;49.768;18.302;2022-09-01T05:06:03;4.93;;;3.90;;
20427;SDS011;10373;49.768;18.302;2022-09-01T05:08:29;6.75;;;4.05;;
20427;SDS011;10373;49.768;18.302;2022-09-01T05:11:00;6.07;;;4.07;;
20427;SDS011;10373;49.768;18.302;2022-09-01T05:13:31;6.72;;;4.10;;
20427;SDS011;10373;49.768;18.302;2022-09-01T05:16:03;8.63;;;4.82;;
20427;SDS011;10373;49.768;18.302;2022-09-01T05:18:37;8.48;;;4.20;;
20427;SDS011;10373;49.768;18.302;2022-09-01T05:21:08;10.27;;;5.15;;
20427;SDS011;10373;49.768;18.302;2022-09-01T05:23:35;9.38;;;5.07;;
20427;SDS011;10373;49.768;18.302;2022-09-01T05:26:04;5.97;;;4.47;;
20427;SDS011;10373;49.768;18.302;2022-09-01T05:28:39;6.32;;;4.47;;
20427;SDS011;10373;49.768;18.302;2022-09-01T05:31:05;7.35;;;4.30;;
20427;SDS011;10373;49.768;18.302;2022-09-01T05:33:31;9.43;;;5.20;;
20427;SDS011;10373;49.768;18.302;2022-09-01T05:36:01;6.78;;;4.68;;
20427;SDS011;10373;49.768;18.302;2022-09-01T05:38:32;8.02;;;5.03;;
20427;SDS011;10373;49.768;18.302;2022-09-01T05:41:03;8.57;;;5.15;;
20427;SDS011;10373;49.768;18.302;2022-09-01T05:43:33;7.45;;;4.93;;
20427;SDS011;10373;49.768;18.302;2022-09-01T05:46:00;5.82;;;4.28;;
20427;SDS011;10373;49.768;18.302;2022-09-01T05:48:28;6.18;;;4.43;;
20427;SDS011;10373;49.768;18.302;2022-09-01T05:50:55;7.53;;;5.03;;
20427;SDS011;10373;49.768;18.302;2022-09-01T05:53:22;8.02;;;4.70;;
20427;SDS011;10373;49.768;18.302;2022-09-01T05:55:49;6.88;;;4.57;;
20427;SDS011;10373;49.768;18.302;2022-09-01T05:58:21;8.77;;;5.30;;
20427;SDS011;10373;49.768;18.302;2022-09-01T06:00:51;8.13;;;5.38;;
20427;SDS011;10373;49.768;18.302;2022-09-01T06:03:20;7.28;;;4.68;;
20427;SDS011;10373;49.768;18.302;2022-09-01T06:05:46;5.43;;;4.38;;
20427;SDS011;10373;49.768;18.302;2022-09-01T06:08:17;6.88;;;4.60;;
20427;SDS011;10373;49.768;18.302;2022-09-01T06:10:44;7.93;;;4.93;;
20427;SDS011;10373;49.768;18.302;2022-09-01T06:13:09;9.32;;;4.68;;
20427;SDS011;10373;49.768;18.302;2022-09-01T06:15:40;7.75;;;4.97;;
20427;SDS011;10373;49.768;18.302;2022-09-01T06:18:08;10.38;;;5.82;;
20427;SDS011;10373;49.768;18.302;2022-09-01T06:20:39;6.38;;;4.20;;
20427;SDS011;10373;49.768;18.302;2022-09-01T06:23:07;7.35;;;4.90;;
20427;SDS011;10373;49.768;18.302;2022-09-01T06:25:36;8.32;;;5.22;;
20427;SDS011;10373;49.768;18.302;2022-09-01T06:28:04;7.60;;;4.97;;
20427;SDS011;10373;49.768;18.302;2022-09-01T06:30:32;8.63;;;5.20;;
20427;SDS011;10373;49.768;18.302;2022-09-01T06:33:00;7.93;;;5.70;;
20427;SDS011;10373;49.768;18.302;2022-09-01T06:35:29;7.63;;;5.43;;
20427;SDS011;10373;49.768;18.302;2022-09-01T06:37:56;8.35;;;5.70;;
20427;SDS011;10373;49.768;18.302;2022-09-01T06:40:22;8.57;;;5.05;;
20427;SDS011;10373;49.768;18.302;2022-09-01T06:42:50;10.95;;;5.63;;
20427;SDS011;10373;49.768;18.302;2022-09-01T06:45:18;9.00;;;5.13;;
20427;SDS011;10373;49.768;18.302;2022-09-01T06:47:46;9.48;;;6.43;;
20427;SDS011;10373;49.768;18.302;2022-09-01T06:50:15;7.85;;;4.47;;
20427;SDS011;10373;49.768;18.302;2022-09-01T06:52:46;11.60;;;6.65;;
20427;SDS011;10373;49.768;18.302;2022-09-01T06:55:14;12.95;;;7.03;;
20427;SDS011;10373;49.768;18.302;2022-09-01T06:57:41;9.40;;;6.00;;
20427;SDS011;10373;49.768;18.302;2022-09-01T07:00:10;5.68;;;4.28;;
20427;SDS011;10373;49.768;18.302;2022-09-01T07:02:45;8.30;;;4.60;;
20427;SDS011;10373;49.768;18.302;2022-09-01T07:05:12;7.72;;;3.70;;
20427;SDS011;10373;49.768;18.302;2022-09-01T07:07:46;6.32;;;3.95;;
20427;SDS011;10373;49.768;18.302;2022-09-01T07:10:19;14.07;;;6.43;;
20427;SDS011;10373;49.768;18.302;2022-09-01T07:12:50;8.02;;;5.70;;
20427;SDS011;10373;49.768;18.302;2022-09-01T07:15:19;6.55;;;4.43;;
20427;SDS011;10373;49.768;18.302;2022-09-01T07:17:50;20.10;;;8.00;;
20427;SDS011;10373;49.768;18.302;2022-09-01T07:20:17;12.60;;;6.70;;
20427;SDS011;10373;49.768;18.302;2022-09-01T07:22:48;12.18;;;7.30;;
20427;SDS011;10373;49.768;18.302;2022-09-01T07:25:15;14.48;;;7.93;;
20427;SDS011;10373;49.768;18.302;2022-09-01T07:27:41;13.65;;;7.22;;
20427;SDS011;10373;49.768;18.302;2022-09-01T07:30:13;16.45;;;7.57;;
20427;SDS011;10373;49.768;18.302;2022-09-01T07:32:40;10.60;;;6.75;;
20427;SDS011;10373;49.768;18.302;2022-09-01T07:35:09;14.73;;;8.35;;
20427;SDS011;10373;49.768;18.302;2022-09-01T07:37:36;18.55;;;10.13;;
20427;SDS011;10373;49.768;18.302;2022-09-01T07:40:05;16.20;;;7.97;;
20427;SDS011;10373;49.768;18.302;2022-09-01T07:42:33;9.32;;;5.38;;
20427;SDS011;10373;49.768;18.302;2022-09-01T07:44:59;9.98;;;5.10;;
20427;SDS011;10373;49.768;18.302;2022-09-01T07:47:25;5.82;;;4.05;;
20427;SDS011;10373;49.768;18.302;2022-09-01T07:49:53;10.50;;;4.38;;
20427;SDS011;10373;49.768;18.302;2022-09-01T07:52:20;10.40;;;3.70;;
20427;SDS011;10373;49.768;18.302;2022-09-01T07:54:45;12.25;;;4.70;;
20427;SDS011;10373;49.768;18.302;2022-09-01T07:57:11;10.40;;;5.38;;
20427;SDS011;10373;49.768;18.302;2022-09-01T07:59:39;12.55;;;6.25;;
20427;SDS011;10373;49.768;18.302;2022-09-01T08:02:05;7.47;;;4.40;;
20427;SDS011;10373;49.768;18.302;2022-09-01T08:04:31;7.53;;;4.53;;
20427;SDS011;10373;49.768;18.302;2022-09-01T08:06:58;8.65;;;4.88;;
20427;SDS011;10373;49.768;18.302;2022-09-01T08:09:24;9.85;;;4.82;;
20427;SDS011;10373;49.768;18.302;2022-09-01T08:11:49;10.35;;;4.63;;
20427;SDS011;10373;49.768;18.302;2022-09-01T08:14:16;10.10;;;5.00;;
20427;SDS011;10373;49.768;18.302;2022-09-01T08:16:41;6.43;;;3.47;;
20427;SDS011;10373;49.768;18.302;2022-09-01T08:19:07;10.50;;;3.70;;
20427;SDS011;10373;49.768;18.302;2022-09-01T08:21:33;7.03;;;3.22;;
20427;SDS011;10373;49.768;18.302;2022-09-01T08:23:59;6.90;;;3.65;;
20427;SDS011;10373;49.768;18.302;2022-09-01T08:26:25;10.63;;;3.50;;
20427;SDS011;10373;49.768;18.302;2022-09-01T08:28:51;7.70;;;2.95;;
20427;SDS011;10373;49.768;18.302;2022-09-01T08:31:18;8.00;;;3.47;;
20427;SDS011;10373;49.768;18.302;2022-09-01T08:33:45;6.15;;;3.25;;
20427;SDS011;10373;49.768;18.302;2022-09-01T08:36:13;11.45;;;3.55;;
20427;SDS011;10373;49.768;18.302;2022-09-01T08:38:40;9.80;;;3.90;;
20427;SDS011;10373;49.768;18.302;2022-09-01T08:46:22;2.38;;;1.77;;
20427;SDS011;10373;49.768;18.302;2022-09-01T08:48:58;6.72;;;2.30;;
20427;SDS011;10373;49.768;18.302;2022-09-01T08:51:31;5.00;;;2.20;;
20427;SDS011;10373;49.768;18.302;2022-09-01T08:54:09;2.83;;;1.70;;
20427;SDS011;10373;49.768;18.302;2022-09-01T08:56:38;6.15;;;2.28;;
20427;SDS011;10373;49.768;18.302;2022-09-01T08:59:05;5.15;;;2.13;;
20427;SDS011;10373;49.768;18.302;2022-09-01T09:01:39;7.72;;;3.17;;
20427;SDS011;10373;49.768;18.302;2022-09-01T09:04:29;3.13;;;1.85;;
20427;SDS011;10373;49.768;18.302;2022-09-01T09:20:56;3.22;;;1.77;;
20427;SDS011;10373;49.768;18.302;2022-09-01T09:23:32;5.10;;;2.22;;
20427;SDS011;10373;49.768;18.302;2022-09-01T09:26:02;5.03;;;2.15;;
20427;SDS011;10373;49.768;18.302;2022-09-01T09:28:28;4.03;;;1.80;;
20427;SDS011;10373;49.768;18.302;2022-09-01T09:34:27;4.57;;;2.38;;
20427;SDS011;10373;49.768;18.302;2022-09-01T09:37:00;3.85;;;1.60;;
20427;SDS011;10373;49.768;18.302;2022-09-01T09:39:42;4.60;;;2.20;;
20427;SDS011;10373;49.768;18.302;2022-09-01T09:42:11;5.70;;;2.45;;
20427;SDS011;10373;49.768;18.302;2022-09-01T09:44:39;5.35;;;2.50;;
20427;SDS011;10373;49.768;18.302;2022-09-01T09:47:09;4.53;;;2.40;;
20427;SDS011;10373;49.768;18.302;2022-09-01T09:50:09;6.75;;;2.40;;
20427;SDS011;10373;49.768;18.302;2022-09-01T09:52:41;7.20;;;1.70;;
20427;SDS011;10373;49.768;18.302;2022-09-01T09:55:20;10.30;;;4.75;;
20427;SDS011;10373;49.768;18.302;2022-09-01T09:57:52;9.30;;;4.00;;
20427;SDS011;10373;49.768;18.302;2022-09-01T10:02:56;1.67;;;1.10;;
20427;SDS011;10373;49.768;18.302;2022-09-01T10:05:40;1.50;;;0.80;;
20427;SDS011;10373;49.768;18.302;2022-09-01T10:08:35;3.50;;;0.90;;
20427;SDS011;10373;49.768;18.302;2022-09-01T10:10:58;1.27;;;0.50;;
20427;SDS011;10373;49.768;18.302;2022-09-01T10:13:25;1.63;;;0.93;;
20427;SDS011;10373;49.768;18.302;2022-09-01T10:15:56;2.08;;;1.20;;
20427;SDS011;10373;49.768;18.302;2022-09-01T10:21:30;3.40;;;1.52;;
20427;SDS011;10373;49.768;18.302;2022-09-01T10:24:06;4.45;;;1.02;;
20427;SDS011;10373;49.768;18.302;2022-09-01T10:26:35;5.43;;;2.60;;
20427;SDS011;10373;49.768;18.302;2022-09-01T10:29:07;7.97;;;3.70;;
20427;SDS011;10373;49.768;18.302;2022-09-01T10:31:39;7.18;;;3.72;;
20427;SDS011;10373;49.768;18.302;2022-09-01T10:34:06;8.52;;;5.47;;
20427;SDS011;10373;49.768;18.302;2022-09-01T10:36:38;6.63;;;3.58;;
20427;SDS011;10373;49.768;18.302;2022-09-01T10:39:11;6.38;;;3.50;;
20427;SDS011;10373;49.768;18.302;2022-09-01T10:41:48;6.45;;;3.17;;
20427;SDS011;10373;49.768;18.302;2022-09-01T10:44:23;4.80;;;1.88;;
20427;SDS011;10373;49.768;18.302;2022-09-01T10:47:30;6.78;;;2.83;;
20427;SDS011;10373;49.768;18.302;2022-09-01T10:49:59;5.95;;;2.95;;
20427;SDS011;10373;49.768;18.302;2022-09-01T10:55:22;4.57;;;2.40;;
20427;SDS011;10373;49.768;18.302;2022-09-01T11:08:23;13.35;;;5.68;;
20427;SDS011;10373;49.768;18.302;2022-09-01T11:11:20;6.45;;;3.17;;
20427;SDS011;10373;49.768;18.302;2022-09-01T11:13:54;5.72;;;2.33;;
20427;SDS011;10373;49.768;18.302;2022-09-01T11:16:27;4.00;;;1.98;;
20427;SDS011;10373;49.768;18.302;2022-09-01T11:18:54;6.57;;;1.83;;
20427;SDS011;10373;49.768;18.302;2022-09-01T11:21:39;2.58;;;1.33;;
20427;SDS011;10373;49.768;18.302;2022-09-01T11:27:02;6.43;;;1.63;;
20427;SDS011;10373;49.768;18.302;2022-09-01T11:32:21;8.40;;;5.35;;
20427;SDS011;10373;49.768;18.302;2022-09-01T11:34:51;7.75;;;3.20;;
20427;SDS011;10373;49.768;18.302;2022-09-01T11:37:22;4.20;;;2.50;;
20427;SDS011;10373;49.768;18.302;2022-09-01T11:39:50;3.08;;;1.75;;
20427;SDS011;10373;49.768;18.302;2022-09-01T11:42:26;4.78;;;2.10;;
20427;SDS011;10373;49.768;18.302;2022-09-01T11:45:17;2.28;;;1.33;;
20427;SDS011;10373;49.768;18.302;2022-09-01T11:48:16;5.25;;;1.70;;
20427;SDS011;10373;49.768;18.302;2022-09-01T11:50:42;2.13;;;1.30;;
20427;SDS011;10373;49.768;18.302;2022-09-01T11:53:09;4.68;;;2.30;;
20427;SDS011;10373;49.768;18.302;2022-09-01T11:55:45;3.72;;;2.25;;
20427;SDS011;10373;49.768;18.302;2022-09-01T12:01:10;4.03;;;1.67;;
20427;SDS011;10373;49.768;18.302;2022-09-01T12:03:45;5.15;;;1.70;;
20427;SDS011;10373;49.768;18.302;2022-09-01T12:06:17;4.57;;;2.70;;
20427;SDS011;10373;49.768;18.302;2022-09-01T12:08:50;7.15;;;2.70;;
20427;SDS011;10373;49.768;18.302;2022-09-01T12:11:29;12.00;;;4.95;;
20427;SDS011;10373;49.768;18.302;2022-09-01T12:14:01;9.68;;;5.80;;
20427;SDS011;10373;49.768;18.302;2022-09-01T12:16:28;12.00;;;5.70;;
20427;SDS011;10373;49.768;18.302;2022-09-01T12:18:55;12.15;;;7.22;;
20427;SDS011;10373;49.768;18.302;2022-09-01T12:21:30;6.55;;;4.32;;
20427;SDS011;10373;49.768;18.302;2022-09-01T12:26:48;6.75;;;2.80;;
20427;SDS011;10373;49.768;18.302;2022-09-01T12:29:16;6.90;;;3.17;;
20427;SDS011;10373;49.768;18.302;2022-09-01T12:31:43;8.18;;;3.70;;
20427;SDS011;10373;49.768;18.302;2022-09-01T12:37:26;6.65;;;3.65;;
20427;SDS011;10373;49.768;18.302;2022-09-01T12:39:53;34.38;;;12.38;;
20427;SDS011;10373;49.768;18.302;2022-09-01T12:44:50;11.00;;;4.65;;
20427;SDS011;10373;49.768;18.302;2022-09-01T12:52:28;7.50;;;4.55;;
20427;SDS011;10373;49.768;18.302;2022-09-01T13:02:40;7.18;;;2.25;;
20427;SDS011;10373;49.768;18.302;2022-09-01T13:05:30;2.25;;;1.38;;
20427;SDS011;10373;49.768;18.302;2022-09-01T13:08:04;2.85;;;0.90;;
20427;SDS011;10373;49.768;18.302;2022-09-01T13:10:39;3.35;;;1.80;;
20427;SDS011;10373;49.768;18.302;2022-09-01T13:13:08;5.93;;;2.70;;
20427;SDS011;10373;49.768;18.302;2022-09-01T13:15:35;5.30;;;2.40;;
20427;SDS011;10373;49.768;18.302;2022-09-01T13:18:03;8.30;;;3.85;;
20427;SDS011;10373;49.768;18.302;2022-09-01T13:20:28;9.55;;;5.38;;
20427;SDS011;10373;49.768;18.302;2022-09-01T13:22:54;10.23;;;5.30;;
20427;SDS011;10373;49.768;18.302;2022-09-01T13:25:21;8.23;;;3.92;;
20427;SDS011;10373;49.768;18.302;2022-09-01T13:27:47;6.32;;;3.58;;
20427;SDS011;10373;49.768;18.302;2022-09-01T13:30:14;3.35;;;2.10;;
20427;SDS011;10373;49.768;18.302;2022-09-01T13:32:43;3.60;;;1.80;;
20427;SDS011;10373;49.768;18.302;2022-09-01T13:35:11;3.22;;;2.17;;
20427;SDS011;10373;49.768;18.302;2022-09-01T13:37:39;3.95;;;2.30;;
20427;SDS011;10373;49.768;18.302;2022-09-01T13:40:06;4.32;;;1.98;;
20427;SDS011;10373;49.768;18.302;2022-09-01T13:42:34;2.75;;;1.38;;
20427;SDS011;10373;49.768;18.302;2022-09-01T13:44:59;2.75;;;1.63;;
20427;SDS011;10373;49.768;18.302;2022-09-01T13:47:25;1.50;;;1.00;;
20427;SDS011;10373;49.768;18.302;2022-09-01T13:49:51;2.22;;;0.90;;
20427;SDS011;10373;49.768;18.302;2022-09-01T13:52:17;1.27;;;0.90;;
20427;SDS011;10373;49.768;18.302;2022-09-01T13:54:43;0.85;;;0.73;;
20427;SDS011;10373;49.768;18.302;2022-09-01T13:57:09;0.95;;;0.60;;
20427;SDS011;10373;49.768;18.302;2022-09-01T13:59:40;3.15;;;1.38;;
20427;SDS011;10373;49.768;18.302;2022-09-01T14:02:06;1.52;;;0.98;;
20427;SDS011;10373;49.768;18.302;2022-09-01T14:04:32;1.60;;;1.00;;
20427;SDS011;10373;49.768;18.302;2022-09-01T14:06:57;3.20;;;0.80;;
20427;SDS011;10373;49.768;18.302;2022-09-01T14:09:23;2.55;;;1.00;;
20427;SDS011;10373;49.768;18.302;2022-09-01T14:11:51;1.70;;;0.90;;
20427;SDS011;10373;49.768;18.302;2022-09-01T14:14:17;1.92;;;1.13;;
20427;SDS011;10373;49.768;18.302;2022-09-01T14:16:44;6.30;;;2.00;;
20427;SDS011;10373;49.768;18.302;2022-09-01T14:19:10;3.28;;;2.10;;
20427;SDS011;10373;49.768;18.302;2022-09-01T14:21:36;6.45;;;2.47;;
20427;SDS011;10373;49.768;18.302;2022-09-01T14:24:03;4.50;;;2.05;;
20427;SDS011;10373;49.768;18.302;2022-09-01T14:26:29;3.17;;;1.50;;
20427;SDS011;10373;49.768;18.302;2022-09-01T14:28:55;3.35;;;1.60;;
20427;SDS011;10373;49.768;18.302;2022-09-01T14:31:20;3.63;;;1.77;;
20427;SDS011;10373;49.768;18.302;2022-09-01T14:33:47;2.80;;;1.65;;
20427;SDS011;10373;49.768;18.302;2022-09-01T14:36:17;4.53;;;2.28;;
20427;SDS011;10373;49.768;18.302;2022-09-01T14:38:45;5.22;;;2.58;;
20427;SDS011;10373;49.768;18.302;2022-09-01T14:41:13;5.90;;;2.85;;
20427;SDS011;10373;49.768;18.302;2022-09-01T14:43:39;6.22;;;2.90;;
20427;SDS011;10373;49.768;18.302;2022-09-01T14:46:09;6.20;;;3.22;;
20427;SDS011;10373;49.768;18.302;2022-09-01T14:48:37;10.50;;;5.70;;
20427;SDS011;10373;49.768;18.302;2022-09-01T14:51:03;7.82;;;4.80;;
20427;SDS011;10373;49.768;18.302;2022-09-01T14:53:30;11.05;;;5.15;;
20427;SDS011;10373;49.768;18.302;2022-09-01T14:55:58;12.88;;;6.57;;
20427;SDS011;10373;49.768;18.302;2022-09-01T14:58:25;9.05;;;5.53;;
20427;SDS011;10373;49.768;18.302;2022-09-01T15:00:53;9.50;;;5.35;;
20427;SDS011;10373;49.768;18.302;2022-09-01T15:03:20;8.82;;;4.72;;
20427;SDS011;10373;49.768;18.302;2022-09-01T15:05:47;6.72;;;3.70;;
20427;SDS011;10373;49.768;18.302;2022-09-01T15:08:15;4.53;;;2.67;;
20427;SDS011;10373;49.768;18.302;2022-09-01T15:10:42;3.78;;;1.70;;
20427;SDS011;10373;49.768;18.302;2022-09-01T15:13:08;3.95;;;1.55;;
20427;SDS011;10373;49.768;18.302;2022-09-01T15:15:34;4.13;;;1.63;;
20427;SDS011;10373;49.768;18.302;2022-09-01T15:17:59;4.57;;;1.67;;
20427;SDS011;10373;49.768;18.302;2022-09-01T15:20:26;2.97;;;1.50;;
20427;SDS011;10373;49.768;18.302;2022-09-01T15:23:18;4.53;;;1.70;;
20427;SDS011;10373;49.768;18.302;2022-09-01T15:25:49;3.22;;;1.75;;
20427;SDS011;10373;49.768;18.302;2022-09-01T15:28:17;5.35;;;2.00;;
20427;SDS011;10373;49.768;18.302;2022-09-01T15:30:43;13.45;;;5.63;;
20427;SDS011;10373;49.768;18.302;2022-09-01T15:33:10;34.40;;;15.23;;
20427;SDS011;10373;49.768;18.302;2022-09-01T15:35:37;35.80;;;15.15;;
20427;SDS011;10373;49.768;18.302;2022-09-01T15:38:03;35.92;;;15.82;;
20427;SDS011;10373;49.768;18.302;2022-09-01T15:40:31;36.40;;;14.60;;
20427;SDS011;10373;49.768;18.302;2022-09-01T15:42:58;15.32;;;7.22;;
20427;SDS011;10373;49.768;18.302;2022-09-01T15:45:24;7.55;;;3.70;;
20427;SDS011;10373;49.768;18.302;2022-09-01T15:47:51;5.20;;;2.70;;
20427;SDS011;10373;49.768;18.302;2022-09-01T15:50:18;5.30;;;2.92;;
20427;SDS011;10373;49.768;18.302;2022-09-01T15:55:27;4.25;;;2.83;;
20427;SDS011;10373;49.768;18.302;2022-09-01T15:57:55;3.75;;;2.40;;
20427;SDS011;10373;49.768;18.302;2022-09-01T16:00:23;8.10;;;2.45;;
20427;SDS011;10373;49.768;18.302;2022-09-01T16:02:49;5.05;;;2.60;;
20427;SDS011;10373;49.768;18.302;2022-09-01T16:05:15;7.18;;;3.88;;
20427;SDS011;10373;49.768;18.302;2022-09-01T16:07:42;4.70;;;2.90;;
20427;SDS011;10373;49.768;18.302;2022-09-01T16:10:08;3.30;;;2.35;;